Time;durP1;ratioP1;P1;durP2;ratioP2;P2;SDS_P1;SDS_P2;PMS_P1;PMS_P2;Temp;Humidity;BMP_temperature;BMP_pressure;BME280_temperature;BME280_humidity;BME280_pressure;Samples;Min_cycle;Max_cycle;Signal;HPM_P1;HPM_P2
2022/02/28 00:01:22;;;;;;;24.00;12.75;;;;;;;1.62;75.10;101612.25;1700967;84;21112;-69
2022/02/28 00:03:53;;;;;;;27.45;9.63;;;;;;;1.61;75.30;101605.28;1701609;84;21109;-70
2022/02/28 00:06:19;;;;;;;18.45;7.67;;;;;;;1.64;75.77;101607.55;1706334;84;22214;-69
2022/02/28 00:08:48;;;;;;;18.48;7.12;;;;;;;1.72;75.94;101601.22;1706439;84;21083;-69
2022/02/28 00:11:15;;;;;;;21.37;7.58;;;;;;;1.81;75.75;101605.31;1716232;83;21102;-70
2022/02/28 00:13:43;;;;;;;17.80;7.12;;;;;;;1.78;74.99;101610.45;1715900;83;21157;-70
2022/02/28 00:16:10;;;;;;;15.03;6.22;;;;;;;1.70;74.79;101608.52;1717180;83;21058;-69
2022/02/28 00:18:38;;;;;;;18.62;7.30;;;;;;;1.73;75.11;101614.67;1721187;82;21146;-70
2022/02/28 00:21:07;;;;;;;19.45;7.17;;;;;;;1.87;75.67;101608.48;1721250;83;21089;-69
2022/02/28 00:23:34;;;;;;;14.30;6.35;;;;;;;1.91;74.59;101613.31;1721124;83;21094;-68
2022/02/28 00:26:03;;;;;;;15.28;5.78;;;;;;;1.95;74.72;101608.65;1721241;83;21107;-69
2022/02/28 00:28:30;;;;;;;15.45;7.62;;;;;;;1.94;73.49;101611.67;1721135;83;21046;-69
2022/02/28 00:30:57;;;;;;;13.48;5.87;;;;;;;1.81;73.07;101611.81;1721476;83;21094;-69
2022/02/28 00:33:23;;;;;;;16.82;6.92;;;;;;;1.73;73.46;101617.27;1721187;83;21050;-69
2022/02/28 00:35:50;;;;;;;44.03;16.65;;;;;;;1.75;73.39;101601.30;1721042;83;21079;-69
2022/02/28 00:38:16;;;;;;;32.65;16.65;;;;;;;1.74;73.18;101609.05;1721277;83;20995;-70
2022/02/28 00:40:44;;;;;;;22.30;9.45;;;;;;;1.61;73.04;101605.28;1706347;83;21850;-69
2022/02/28 00:43:11;;;;;;;17.42;8.40;;;;;;;1.57;73.02;101606.95;1706221;84;21127;-69
2022/02/28 00:45:38;;;;;;;14.25;7.22;;;;;;;1.59;73.74;101605.27;1732211;82;21037;-69
2022/02/28 00:48:05;;;;;;;11.85;5.95;;;;;;;1.76;73.65;101611.27;1731925;82;21113;-69
2022/02/28 00:50:31;;;;;;;12.70;6.08;;;;;;;1.91;74.00;101605.52;1731998;82;21350;-69
2022/02/28 00:52:58;;;;;;;10.15;5.62;;;;;;;2.08;73.96;101602.87;1731753;82;21635;-69
2022/02/28 00:55:24;;;;;;;12.05;5.92;;;;;;;2.22;73.09;101598.84;1752105;81;21506;-70
2022/02/28 00:57:51;;;;;;;11.63;5.33;;;;;;;2.26;71.67;101605.00;1754439;81;21560;-69
2022/02/28 01:00:19;;;;;;;12.07;6.17;;;;;;;2.12;70.68;101604.70;1743883;81;21104;-70
2022/02/28 01:02:47;;;;;;;10.32;4.75;;;;;;;2.12;71.32;101608.61;1730752;82;21659;-69
2022/02/28 01:05:15;;;;;;;10.88;5.30;;;;;;;1.84;70.71;101609.30;1743381;80;21081;-70
2022/02/28 01:07:43;;;;;;;13.98;5.58;;;;;;;1.52;71.25;101626.74;1721117;81;21212;-70
2022/02/28 01:10:11;;;;;;;11.78;5.35;;;;;;;1.17;71.77;101628.02;1726871;83;21526;-70
2022/02/28 01:12:39;;;;;;;14.43;6.40;;;;;;;0.95;72.36;101635.69;1726805;83;21097;-70
2022/02/28 01:15:07;;;;;;;13.08;5.97;;;;;;;0.94;72.79;101633.91;1727169;83;21022;-70
2022/02/28 01:17:36;;;;;;;12.40;6.60;;;;;;;1.14;74.65;101632.27;1703324;82;21569;-69
2022/02/28 01:20:05;;;;;;;16.07;6.50;;;;;;;1.39;74.43;101630.74;1731302;82;21109;-70
2022/02/28 01:22:33;;;;;;;14.05;6.70;;;;;;;1.65;74.53;101627.46;1731530;82;21553;-69
2022/02/28 01:25:01;;;;;;;10.05;6.33;;;;;;;1.77;72.44;101628.20;1731688;82;21042;-69
2022/02/28 01:27:27;;;;;;;14.60;6.58;;;;;;;1.77;71.03;101630.80;1731691;82;21477;-69
2022/02/28 01:29:54;;;;;;;15.80;7.28;;;;;;;1.85;71.95;101630.53;1732005;82;21058;-69
2022/02/28 01:32:20;;;;;;;15.25;6.03;;;;;;;1.96;71.10;101624.71;1731441;82;21196;-69
2022/02/28 01:34:47;;;;;;;13.83;6.25;;;;;;;1.91;70.27;101626.30;1731500;82;21047;-70
2022/02/28 01:37:15;;;;;;;14.65;5.87;;;;;;;2.00;71.67;101630.41;1731584;82;21066;-69
2022/02/28 01:39:44;;;;;;;12.37;5.20;;;;;;;2.04;71.07;101620.55;1731532;82;21105;-70
2022/02/28 01:42:10;;;;;;;11.85;5.70;;;;;;;2.06;71.63;101622.76;1731586;82;21074;-69
2022/02/28 01:44:36;;;;;;;12.43;6.25;;;;;;;2.08;70.76;101621.07;1731683;82;21299;-69
2022/02/28 01:47:04;;;;;;;12.70;6.00;;;;;;;1.99;70.04;101628.67;1731676;82;21038;-69
2022/02/28 01:49:31;;;;;;;11.60;5.78;;;;;;;1.89;70.88;101629.77;1704567;82;21101;-69
2022/02/28 01:51:59;;;;;;;9.63;4.97;;;;;;;1.88;71.69;101634.48;1731807;82;21105;-71
2022/02/28 01:54:25;;;;;;;11.80;5.58;;;;;;;1.87;70.92;101631.88;1731493;82;21085;-70
2022/02/28 01:56:52;;;;;;;13.10;5.35;;;;;;;1.84;71.08;101633.98;1731555;82;21317;-69
2022/02/28 01:59:18;;;;;;;13.53;5.35;;;;;;;1.71;70.75;101638.44;1731803;82;21069;-70
2022/02/28 02:01:46;;;;;;;9.85;5.20;;;;;;;1.55;71.33;101629.83;1731715;82;21557;-70
2022/02/28 02:04:12;;;;;;;11.48;4.80;;;;;;;1.46;71.98;101635.24;1731112;82;21050;-69
2022/02/28 02:06:39;;;;;;;9.10;4.83;;;;;;;1.36;72.71;101638.47;1731468;82;21101;-69
2022/02/28 02:09:06;;;;;;;9.80;4.85;;;;;;;1.27;73.95;101636.94;1732054;82;21839;-70
2022/02/28 02:11:35;;;;;;;10.85;5.10;;;;;;;1.34;75.27;101636.25;1731907;82;21094;-69
2022/02/28 02:14:02;;;;;;;11.45;5.00;;;;;;;1.65;76.94;101638.28;1731685;82;21045;-69
2022/02/28 02:16:28;;;;;;;14.83;4.28;;;;;;;1.78;74.44;101632.53;1730964;82;21649;-68
2022/02/28 02:18:55;;;;;;;12.50;5.22;;;;;;;1.69;73.37;101637.52;1724493;83;21596;-69
2022/02/28 02:21:22;;;;;;;11.57;4.72;;;;;;;1.62;73.51;101636.91;1688498;85;21135;-69
2022/02/28 02:23:49;;;;;;;11.83;5.35;;;;;;;1.42;73.61;101633.41;1718728;83;21074;-70
2022/02/28 02:26:16;;;;;;;8.98;5.00;;;;;;;1.36;74.65;101642.36;1718939;83;21626;-69
2022/02/28 02:28:44;;;;;;;11.88;5.12;;;;;;;1.23;75.65;101644.19;1719209;83;21094;-69
2022/02/28 02:31:10;;;;;;;8.40;4.80;;;;;;;1.18;76.08;101639.30;1719113;83;21030;-70
2022/02/28 02:33:38;;;;;;;10.63;5.20;;;;;;;1.19;76.13;101643.64;1718959;83;21040;-69
2022/02/28 02:36:07;;;;;;;10.28;4.53;;;;;;;1.21;75.80;101639.38;1719145;83;21046;-69
2022/02/28 02:38:36;;;;;;;11.50;5.20;;;;;;;1.13;76.30;101638.28;1718637;83;21066;-70
2022/02/28 02:41:04;;;;;;;14.53;5.30;;;;;;;1.11;76.20;101637.39;1719034;83;21070;-69
2022/02/28 02:43:31;;;;;;;9.13;4.60;;;;;;;1.15;77.11;101644.39;1718918;82;21141;-69
2022/02/28 02:45:58;;;;;;;19.12;5.35;;;;;;;1.04;76.21;101646.30;1719260;83;21103;-70
2022/02/28 02:48:26;;;;;;;18.40;5.97;;;;;;;0.93;76.39;101647.73;1718698;82;21016;-68
2022/02/28 02:51:00;;;;;;;9.40;4.67;;;;;;;0.83;76.85;101642.73;1705383;83;21648;-70
2022/02/28 02:53:26;;;;;;;14.83;5.75;;;;;;;0.82;77.38;101638.78;1716216;82;21058;-69
2022/02/28 02:55:54;;;;;;;12.37;4.87;;;;;;;0.92;78.07;101642.50;1685901;85;21074;-70
2022/02/28 02:58:21;;;;;;;9.68;4.90;;;;;;;0.95;77.28;101642.59;1671287;85;21150;-69
2022/02/28 03:00:52;;;;;;;10.80;4.50;;;;;;;0.92;77.14;101641.20;1642821;85;21088;-70
2022/02/28 03:03:22;;;;;;;10.88;4.75;;;;;;;0.86;76.82;101632.84;1670126;85;21942;-69
2022/02/28 03:05:50;;;;;;;21.05;7.97;;;;;;;0.88;77.04;101635.49;1671739;85;21077;-69
2022/02/28 03:08:17;;;;;;;11.30;4.65;;;;;;;0.90;77.13;101633.79;1671474;85;21624;-70
2022/02/28 03:10:44;;;;;;;9.83;4.33;;;;;;;0.89;77.16;101631.62;1671933;84;21137;-70
2022/02/28 03:13:11;;;;;;;7.28;4.00;;;;;;;0.86;75.97;101625.50;1671668;85;21623;-69
2022/02/28 03:15:38;;;;;;;8.03;4.30;;;;;;;0.74;76.36;101632.53;1680221;85;21027;-69
2022/02/28 03:18:06;;;;;;;8.00;3.60;;;;;;;0.59;76.40;101632.97;1688324;84;21033;-69
2022/02/28 03:20:35;;;;;;;9.88;4.15;;;;;;;0.59;78.02;101636.44;1692300;84;21070;-69
2022/02/28 03:23:01;;;;;;;5.70;3.80;;;;;;;0.73;77.25;101635.94;1692063;84;21166;-69
2022/02/28 03:25:28;;;;;;;9.68;3.90;;;;;;;0.67;76.58;101633.17;1691980;84;21266;-68
2022/02/28 03:27:59;;;;;;;6.97;3.50;;;;;;;0.60;76.14;101630.43;1691742;84;21158;-70
2022/02/28 03:30:26;;;;;;;5.67;3.35;;;;;;;0.60;77.62;101633.02;1692327;84;21074;-70
2022/02/28 03:32:52;;;;;;;6.17;3.15;;;;;;;0.69;78.47;101634.09;1692068;84;21183;-69
2022/02/28 03:35:19;;;;;;;8.53;3.65;;;;;;;0.74;76.89;101635.12;1692239;84;21622;-69
2022/02/28 03:37:47;;;;;;;8.00;3.77;;;;;;;0.79;76.53;101636.12;1670460;84;21622;-70
2022/02/28 03:40:14;;;;;;;10.53;4.10;;;;;;;0.79;76.59;101628.34;1692032;84;21027;-69
2022/02/28 03:42:40;;;;;;;9.83;4.22;;;;;;;0.76;75.77;101636.02;1691880;84;21539;-70
2022/02/28 03:45:08;;;;;;;7.37;3.65;;;;;;;0.76;75.77;101636.02;1691980;84;21622;-69
2022/02/28 03:47:35;;;;;;;7.85;3.85;;;;;;;0.77;76.09;101640.38;1691890;84;21142;-70
2022/02/28 03:50:20;;;;;;;9.90;4.08;;;;;;;0.76;75.92;101635.62;1691977;84;21046;-69
2022/02/28 03:52:47;;;;;;;7.83;3.77;;;;;;;0.76;75.58;101633.42;1691789;84;21078;-69
2022/02/28 03:55:19;;;;;;;8.85;3.98;;;;;;;0.71;75.42;101637.19;1712035;83;21041;-69
2022/02/28 03:57:47;;;;;;;10.08;3.80;;;;;;;0.61;74.55;101634.77;1738300;82;21514;-69
2022/02/28 04:00:14;;;;;;;8.70;3.75;;;;;;;0.55;75.19;101632.03;1719557;82;21102;-69
2022/02/28 04:02:42;;;;;;;8.73;3.83;;;;;;;0.56;74.91;101637.66;1738412;82;21272;-70
2022/02/28 04:05:09;;;;;;;9.90;3.30;;;;;;;0.52;75.78;101637.10;1738360;81;21136;-68
2022/02/28 04:07:36;;;;;;;9.03;3.60;;;;;;;0.51;75.33;101640.97;1738179;82;21002;-68
2022/02/28 04:10:05;;;;;;;7.83;3.50;;;;;;;0.48;75.32;101633.95;1738514;81;21055;-69
2022/02/28 04:12:34;;;;;;;7.65;3.83;;;;;;;0.51;76.17;101638.38;1720280;82;21034;-69
2022/02/28 04:15:02;;;;;;;8.05;3.70;;;;;;;0.57;76.37;101641.98;1738407;82;21042;-69
2022/02/28 04:17:29;;;;;;;7.97;4.25;;;;;;;0.52;76.01;101637.52;1739443;82;21112;-69
2022/02/28 04:20:14;;;;;;;10.85;3.90;;;;;;;0.45;75.69;101640.36;1743778;82;21041;-69
2022/02/28 04:22:41;;;;;;;7.12;3.75;;;;;;;0.58;78.16;101642.89;1744556;82;21022;-70
2022/02/28 04:25:11;;;;;;;8.05;3.60;;;;;;;0.65;76.45;101646.54;1743809;81;21146;-70
2022/02/28 04:27:40;;;;;;;8.65;3.72;;;;;;;0.65;75.95;101649.13;1743743;82;21057;-69
2022/02/28 04:30:10;;;;;;;10.65;3.77;;;;;;;0.65;75.78;101655.61;1743644;82;21077;-69
2022/02/28 04:32:36;;;;;;;7.83;3.17;;;;;;;0.58;74.70;101654.13;1744080;82;21013;-69
2022/02/28 04:35:06;;;;;;;9.83;3.65;;;;;;;0.41;74.36;101661.45;1743963;82;21593;-69
2022/02/28 04:37:34;;;;;;;6.80;3.30;;;;;;;0.38;76.49;101657.87;1744164;82;21080;-70
2022/02/28 04:40:03;;;;;;;7.65;3.60;;;;;;;0.42;76.06;101655.84;1743959;82;21007;-69
2022/02/28 04:42:31;;;;;;;8.08;3.27;;;;;;;0.40;74.84;101662.68;1744242;81;21052;-69
2022/02/28 04:44:58;;;;;;;6.87;3.02;;;;;;;0.32;75.67;101660.27;1743656;81;21026;-67
2022/02/28 04:47:24;;;;;;;7.85;3.55;;;;;;;0.30;75.55;101658.95;1743909;81;21073;-70
2022/02/28 04:49:54;;;;;;;5.70;3.20;;;;;;;0.37;76.13;101667.79;1743675;82;21262;-70
2022/02/28 04:52:21;;;;;;;7.55;2.90;;;;;;;0.45;76.47;101672.77;1743635;82;21033;-69
2022/02/28 04:54:48;;;;;;;7.05;3.15;;;;;;;0.66;76.90;101680.27;1729287;82;21102;-70
2022/02/28 04:57:14;;;;;;;4.85;3.00;;;;;;;0.77;74.30;101676.69;1721304;83;21003;-69
2022/02/28 04:59:41;;;;;;;6.42;2.77;;;;;;;0.67;73.17;101681.14;1721058;83;21083;-70
2022/02/28 05:02:09;;;;;;;8.98;4.33;;;;;;;0.61;73.50;101678.84;1718629;82;21130;-69
2022/02/28 05:04:54;;;;;;;9.05;4.97;;;;;;;0.57;72.85;101680.87;1718294;82;21110;-70
2022/02/28 05:07:21;;;;;;;7.00;3.55;;;;;;;0.65;73.68;101689.32;1718227;83;21050;-69
2022/02/28 05:09:48;;;;;;;7.03;3.12;;;;;;;0.65;73.98;101689.32;1718416;83;21070;-70
2022/02/28 05:12:15;;;;;;;5.47;2.62;;;;;;;0.65;73.98;101689.32;1718358;83;21066;-69
2022/02/28 05:14:45;;;;;;;3.55;2.12;;;;;;;0.79;73.07;101686.69;1718527;83;21112;-70
2022/02/28 05:17:11;;;;;;;6.78;2.98;;;;;;;0.96;73.01;101685.84;1718177;83;21059;-69
2022/02/28 05:19:40;;;;;;;7.42;2.58;;;;;;;1.02;72.19;101691.21;1710982;82;21111;-69
2022/02/28 05:22:08;;;;;;;6.35;3.02;;;;;;;1.15;70.28;101719.25;1721244;83;21027;-69
2022/02/28 05:24:36;;;;;;;5.62;2.50;;;;;;;1.01;69.10;101695.53;1720643;83;21077;-71
2022/02/28 05:27:05;;;;;;;5.10;2.45;;;;;;;1.03;69.26;101691.23;1721452;83;21539;-70
2022/02/28 05:29:31;;;;;;;7.05;2.58;;;;;;;1.02;68.84;101689.48;1721545;83;21622;-70
2022/02/28 05:31:58;;;;;;;6.20;2.75;;;;;;;0.94;68.14;101692.28;1721416;82;21086;-69
2022/02/28 05:34:44;;;;;;;4.47;2.40;;;;;;;0.89;67.80;101696.47;1633805;87;21637;-69
2022/02/28 05:37:11;;;;;;;5.12;2.65;;;;;;;0.79;68.43;101698.36;1633640;87;21183;-69
2022/02/28 05:39:43;;;;;;;5.60;2.50;;;;;;;0.58;68.83;101703.39;1666846;83;21105;-69
2022/02/28 05:42:12;;;;;;;7.33;2.60;;;;;;;0.44;69.41;101696.94;1721404;83;21085;-69
2022/02/28 05:44:39;;;;;;;3.83;2.60;;;;;;;0.60;69.47;101700.44;1721462;83;21042;-70
2022/02/28 05:47:06;;;;;;;5.72;2.52;;;;;;;0.86;68.71;101706.77;1721425;83;21517;-68
2022/02/28 05:49:39;;;;;;;5.20;2.30;;;;;;;1.40;69.05;101706.90;1721330;83;21138;-69
2022/02/28 05:52:06;;;;;;;5.33;2.35;;;;;;;2.06;68.17;101697.69;1721438;83;21089;-69
2022/02/28 05:54:32;;;;;;;6.28;2.72;;;;;;;2.83;64.71;101694.54;1721480;83;21082;-71
2022/02/28 05:56:59;;;;;;;7.70;2.80;;;;;;;3.33;62.82;101697.22;1721476;83;21114;-71
2022/02/28 05:59:26;;;;;;;4.20;2.47;;;;;;;3.95;63.05;101693.89;1721443;83;21091;-70
2022/02/28 06:01:52;;;;;;;5.67;2.95;;;;;;;4.51;58.83;101692.93;1721581;83;21065;-70
2022/02/28 06:04:19;;;;;;;9.48;3.08;;;;;;;5.00;57.41;101690.92;1721493;81;21114;-70
2022/02/28 06:06:47;;;;;;;4.40;2.50;;;;;;;5.45;54.63;101700.96;1721421;83;21034;-70
2022/02/28 06:09:13;;;;;;;6.08;2.98;;;;;;;5.82;52.10;101691.22;1721661;83;21035;-71
2022/02/28 06:11:40;;;;;;;6.85;2.98;;;;;;;6.01;50.32;101695.77;1721455;83;21119;-69
2022/02/28 06:14:06;;;;;;;5.33;2.87;;;;;;;6.13;50.98;101697.58;1721463;83;21043;-68
2022/02/28 06:16:33;;;;;;;4.67;2.75;;;;;;;6.48;50.27;101694.28;1721511;82;22061;-69
2022/02/28 06:22:07;;;;;;;4.08;2.90;;;;;;;7.35;47.60;101694.98;1814126;78;28032;-70
2022/02/28 06:24:34;;;;;;;7.83;3.10;;;;;;;7.45;45.92;101691.94;1787025;80;22183;-68
2022/02/28 06:27:00;;;;;;;4.45;2.60;;;;;;;7.55;46.06;101700.27;1787155;80;20995;-70
2022/02/28 06:29:27;;;;;;;5.30;3.12;;;;;;;7.88;45.63;101689.32;1787384;80;21025;-70
2022/02/28 06:31:53;;;;;;;4.58;2.80;;;;;;;8.12;42.48;101697.17;1787383;80;21024;-69
2022/02/28 06:34:19;;;;;;;4.75;2.72;;;;;;;8.21;43.25;101696.25;1787575;80;21517;-69
2022/02/28 06:36:46;;;;;;;9.03;4.03;;;;;;;8.52;42.47;101701.02;1787392;80;21513;-70
2022/02/28 06:39:14;;;;;;;8.10;4.20;;;;;;;8.75;39.77;101702.69;1787057;80;20925;-69
2022/02/28 06:41:41;;;;;;;8.78;4.17;;;;;;;8.73;40.09;101704.45;1756515;80;21028;-70
2022/02/28 06:44:07;;;;;;;7.15;3.98;;;;;;;8.66;40.36;101700.97;1787355;80;21135;-70
2022/02/28 06:46:34;;;;;;;7.65;3.83;;;;;;;8.71;40.28;101705.75;1787238;80;21028;-69
2022/02/28 06:49:00;;;;;;;9.95;3.47;;;;;;;8.95;38.65;101708.73;1787322;80;21049;-71
2022/02/28 06:51:28;;;;;;;5.08;3.27;;;;;;;8.92;38.15;101710.03;1787249;80;21581;-68
2022/02/28 06:53:55;;;;;;;6.15;3.15;;;;;;;9.02;39.56;101699.92;1778566;80;21085;-69
2022/02/28 06:56:21;;;;;;;9.43;2.92;;;;;;;9.45;38.18;101704.02;1755973;81;21047;-68
2022/02/28 06:58:48;;;;;;;7.58;3.70;;;;;;;9.74;36.78;101696.36;1755846;81;21059;-70
2022/02/28 07:01:15;;;;;;;7.03;3.45;;;;;;;9.74;36.06;101688.02;1755985;81;21066;-72
2022/02/28 07:03:56;;;;;;;4.25;2.90;;;;;;;10.07;37.80;101678.05;1715723;81;21091;-70
2022/02/28 07:06:24;;;;;;;8.18;3.52;;;;;;;10.71;35.51;101685.70;1756039;81;21016;-69
2022/02/28 07:08:52;;;;;;;7.08;3.02;;;;;;;11.13;34.58;101685.58;1756009;81;21110;-71
2022/02/28 07:11:18;;;;;;;5.70;2.42;;;;;;;11.44;33.33;101693.02;1755962;81;21059;-70
2022/02/28 07:13:46;;;;;;;4.92;2.80;;;;;;;11.68;33.27;101690.87;1756139;81;21054;-69
2022/02/28 07:16:17;;;;;;;5.30;2.40;;;;;;;11.81;31.94;101686.27;1756165;81;21523;-72
2022/02/28 07:18:43;;;;;;;6.05;2.75;;;;;;;11.90;32.14;101688.32;1755947;81;21108;-71
2022/02/28 07:21:10;;;;;;;8.00;3.20;;;;;;;11.84;30.58;101683.11;1753676;81;21084;-70
2022/02/28 07:23:36;;;;;;;7.60;3.60;;;;;;;11.70;31.34;101687.30;1750858;81;20982;-70
2022/02/28 07:26:03;;;;;;;8.28;3.72;;;;;;;11.74;30.93;101690.78;1751270;81;21071;-70
2022/02/28 07:28:30;;;;;;;4.60;2.40;;;;;;;11.92;31.20;101692.27;1750970;81;21610;-70
2022/02/28 07:30:56;;;;;;;7.10;2.40;;;;;;;12.16;30.72;101688.30;1751100;81;20992;-71
2022/02/28 07:33:23;;;;;;;5.87;2.70;;;;;;;12.37;30.38;101686.55;1750397;81;21122;-72
2022/02/28 07:35:49;;;;;;;7.67;3.20;;;;;;;12.92;30.02;101681.03;1750641;82;21059;-71
2022/02/28 07:38:16;;;;;;;8.80;2.98;;;;;;;13.19;28.23;101692.31;1750484;82;21094;-70
2022/02/28 07:40:42;;;;;;;7.28;3.72;;;;;;;13.13;27.82;101687.15;1750964;82;21494;-70
2022/02/28 07:43:09;;;;;;;7.28;4.12;;;;;;;12.80;27.67;101691.42;1750380;82;21035;-71
2022/02/28 07:45:36;;;;;;;6.12;2.70;;;;;;;12.57;27.66;101691.91;1750389;82;21071;-71
2022/02/28 07:48:03;;;;;;;10.28;3.62;;;;;;;12.48;28.79;101692.09;1750233;82;21527;-70
2022/02/28 07:50:31;;;;;;;31.87;10.85;;;;;;;12.49;27.17;101697.36;1750215;82;21008;-72
2022/02/28 07:52:57;;;;;;;11.50;4.00;;;;;;;12.42;27.88;101700.98;1750156;82;21108;-70
2022/02/28 07:55:24;;;;;;;11.78;4.10;;;;;;;12.44;28.40;101699.19;1777479;80;21033;-71
2022/02/28 07:57:51;;;;;;;5.97;3.60;;;;;;;12.47;27.79;101702.22;1781085;80;21637;-70
2022/02/28 08:00:17;;;;;;;6.85;3.55;;;;;;;11.99;27.28;101703.59;1781138;80;21120;-72
2022/02/28 08:02:44;;;;;;;5.58;2.98;;;;;;;11.89;28.71;101707.72;1781239;80;21112;-70
2022/02/28 08:05:10;;;;;;;7.83;2.92;;;;;;;11.99;28.63;101711.52;1781357;80;21104;-70
2022/02/28 08:07:42;;;;;;;5.58;2.60;;;;;;;12.34;27.56;101703.80;1781505;80;21046;-70
2022/02/28 08:10:08;;;;;;;9.33;3.30;;;;;;;12.73;28.17;101699.94;1781422;80;21080;-71
2022/02/28 08:12:35;;;;;;;4.70;2.22;;;;;;;12.93;27.61;101705.23;1781695;80;21021;-70
2022/02/28 08:15:01;;;;;;;3.75;2.35;;;;;;;13.17;27.79;101695.44;1781367;80;21093;-71
2022/02/28 08:17:28;;;;;;;15.38;4.78;;;;;;;13.70;26.39;101705.69;1781280;80;21189;-69
2022/02/28 08:19:55;;;;;;;8.63;3.95;;;;;;;13.22;25.71;101702.81;1750344;80;21053;-71
2022/02/28 08:22:21;;;;;;;6.60;2.47;;;;;;;12.85;27.35;101697.48;1774587;80;21069;-71
2022/02/28 08:24:48;;;;;;;5.00;2.10;;;;;;;13.24;26.87;101702.78;1773159;80;21090;-71
2022/02/28 08:27:14;;;;;;;6.87;2.72;;;;;;;13.74;26.31;101699.88;1773407;80;21006;-70
2022/02/28 08:29:40;;;;;;;5.10;2.30;;;;;;;13.90;25.87;101703.00;1773260;80;21095;-70
2022/02/28 08:32:08;;;;;;;7.50;3.12;;;;;;;13.83;25.16;101712.88;1773212;80;21120;-71
2022/02/28 08:34:35;;;;;;;6.62;3.58;;;;;;;13.31;25.46;101706.20;1772961;80;21092;-71
2022/02/28 08:37:01;;;;;;;24.82;7.28;;;;;;;12.64;25.98;101700.12;1773253;80;21042;-70
2022/02/28 08:39:28;;;;;;;6.53;2.60;;;;;;;12.04;26.69;101715.80;1773096;80;21105;-70
2022/02/28 08:41:54;;;;;;;9.63;2.55;;;;;;;11.85;27.95;101709.95;1773362;80;21127;-70
2022/02/28 08:44:21;;;;;;;12.23;2.92;;;;;;;12.31;28.66;101709.14;1772998;80;21038;-70
2022/02/28 08:46:48;;;;;;;4.42;2.70;;;;;;;12.90;27.62;101706.62;1773491;80;21342;-71
2022/02/28 08:49:17;;;;;;;3.98;2.40;;;;;;;13.53;26.75;101702.14;1773218;80;21089;-70
2022/02/28 08:51:45;;;;;;;3.92;2.40;;;;;;;13.92;25.24;101712.65;1773463;80;21560;-71
2022/02/28 08:54:12;;;;;;;4.90;2.27;;;;;;;13.68;25.85;101700.02;1760677;80;21100;-70
2022/02/28 08:56:39;;;;;;;5.12;2.30;;;;;;;13.79;25.72;101700.63;1742795;82;21512;-71
2022/02/28 08:59:06;;;;;;;5.30;2.67;;;;;;;14.10;27.35;101691.87;1742504;82;22168;-70
2022/02/28 09:01:33;;;;;;;13.22;4.47;;;;;;;14.64;25.07;101687.30;1761702;80;21049;-72
2022/02/28 09:04:00;;;;;;;6.47;3.40;;;;;;;14.53;25.17;101680.95;1773062;79;21014;-70
2022/02/28 09:06:27;;;;;;;5.10;2.92;;;;;;;14.11;25.26;101681.70;1773359;80;21479;-70
2022/02/28 09:08:53;;;;;;;5.60;2.60;;;;;;;13.66;25.62;101678.00;1772926;80;21054;-71
2022/02/28 09:11:22;;;;;;;4.53;2.30;;;;;;;13.22;25.64;101680.33;1773274;80;21085;-70
2022/02/28 09:13:50;;;;;;;5.85;3.08;;;;;;;13.00;26.17;101677.78;1773114;80;22020;-70
2022/02/28 09:16:17;;;;;;;3.17;1.98;;;;;;;12.96;26.24;101670.81;1773414;80;21053;-71
2022/02/28 09:18:44;;;;;;;3.67;1.98;;;;;;;13.20;26.44;101675.55;1773184;80;21187;-71
2022/02/28 09:21:11;;;;;;;3.58;2.05;;;;;;;13.53;26.43;101673.03;1773265;80;21124;-72
2022/02/28 09:23:37;;;;;;;5.42;3.12;;;;;;;13.94;25.66;101669.78;1750811;80;21089;-70
2022/02/28 09:26:04;;;;;;;10.20;2.72;;;;;;;13.99;24.86;101661.25;1773463;80;21307;-71
2022/02/28 09:28:31;;;;;;;4.55;2.30;;;;;;;13.90;25.63;101660.17;1773162;80;21048;-71
2022/02/28 09:30:57;;;;;;;3.98;1.90;;;;;;;14.00;25.89;101660.33;1761942;80;21095;-71
2022/02/28 09:33:24;;;;;;;7.72;2.08;;;;;;;14.45;24.86;101649.37;1742454;82;20990;-70
2022/02/28 09:35:51;;;;;;;4.03;1.80;;;;;;;14.86;25.36;101651.28;1742941;82;21052;-70
2022/02/28 09:38:18;;;;;;;2.83;1.67;;;;;;;15.44;23.75;101651.20;1742509;82;21049;-71
2022/02/28 09:40:46;;;;;;;8.60;1.55;;;;;;;15.62;22.90;101643.09;1742685;82;20990;-72
2022/02/28 09:43:19;;;;;;;2.80;1.30;;;;;;;15.68;24.65;101637.55;1742580;82;21778;-73
2022/02/28 09:46:04;;;;;;;3.92;1.67;;;;;;;16.05;23.16;101634.09;1742394;82;21033;-73
2022/02/28 09:48:49;;;;;;;2.50;1.80;;;;;;;16.11;22.97;101625.45;1742470;82;21020;-71
2022/02/28 09:51:21;;;;;;;2.42;1.40;;;;;;;15.99;21.50;101625.91;1742524;82;21058;-71
2022/02/28 09:53:58;;;;;;;4.58;1.70;;;;;;;15.38;22.19;101626.18;1713345;82;21574;-71
2022/02/28 09:56:33;;;;;;;5.30;1.98;;;;;;;15.09;23.13;101628.45;1740604;82;21072;-71
2022/02/28 09:59:19;;;;;;;2.55;1.52;;;;;;;15.16;22.46;101620.73;1709297;83;21097;-71
2022/02/28 10:01:47;;;;;;;2.20;1.25;;;;;;;15.08;22.70;101629.38;1684701;83;21652;-70
2022/02/28 10:04:14;;;;;;;2.15;1.20;;;;;;;15.13;22.89;101616.83;1720648;82;21051;-71
2022/02/28 10:06:43;;;;;;;2.15;1.45;;;;;;;15.36;22.15;101620.52;1742727;82;21023;-72
2022/02/28 10:09:17;;;;;;;2.47;1.60;;;;;;;15.66;22.60;101610.17;1742495;81;21085;-70
2022/02/28 10:11:50;;;;;;;2.08;1.37;;;;;;;15.91;21.58;101612.01;1744556;82;21060;-72
2022/02/28 10:14:18;;;;;;;3.15;1.75;;;;;;;15.97;22.49;101614.92;1742464;82;21032;-71
2022/02/28 10:16:58;;;;;;;2.95;1.90;;;;;;;16.49;23.15;101608.52;1742654;81;21107;-71
2022/02/28 10:19:30;;;;;;;2.30;1.50;;;;;;;17.12;21.60;101610.55;1742204;81;21552;-72
2022/02/28 10:22:05;;;;;;;4.17;1.98;;;;;;;17.54;21.89;101608.34;1745392;81;21418;-71
2022/02/28 10:24:38;;;;;;;3.90;1.87;;;;;;;17.82;20.73;101607.58;1750199;82;21102;-71
2022/02/28 10:27:08;;;;;;;2.52;1.45;;;;;;;17.69;20.72;101606.81;1750717;82;21091;-70
2022/02/28 10:29:55;;;;;;;2.47;1.75;;;;;;;17.39;20.48;101604.08;1750356;82;21023;-70
2022/02/28 10:32:50;;;;;;;5.37;1.67;;;;;;;16.92;20.23;101600.23;1750542;82;21039;-70
2022/02/28 10:36:00;;;;;;;3.00;1.87;;;;;;;16.49;21.47;101600.54;1750215;82;21175;-71
2022/02/28 10:38:53;;;;;;;2.42;1.50;;;;;;;16.59;20.98;101602.41;1749840;81;21051;-71
2022/02/28 10:41:28;;;;;;;3.27;1.90;;;;;;;16.49;21.84;101588.58;1750423;81;21083;-71
2022/02/28 10:43:57;;;;;;;4.33;1.90;;;;;;;16.55;20.98;101581.70;1750349;82;21055;-72
2022/02/28 10:46:29;;;;;;;2.17;1.50;;;;;;;16.31;21.48;101588.84;1750353;82;21012;-70
2022/02/28 10:49:09;;;;;;;3.70;1.60;;;;;;;16.43;21.79;101579.52;1749770;81;22099;-70
2022/02/28 10:51:53;;;;;;;4.05;2.00;;;;;;;16.53;20.90;101582.22;1731312;82;28219;-71
2022/02/28 10:54:23;;;;;;;2.58;1.57;;;;;;;16.05;21.10;101583.14;1762637;80;21064;-72
2022/02/28 10:56:53;;;;;;;4.40;2.40;;;;;;;15.41;21.46;101584.06;1778940;80;21078;-71
2022/02/28 10:59:24;;;;;;;2.35;1.42;;;;;;;15.12;22.00;101579.75;1748677;80;21101;-71
2022/02/28 11:01:51;;;;;;;8.75;2.50;;;;;;;15.01;22.45;101580.09;1778904;79;21494;-71
2022/02/28 11:04:39;;;;;;;3.90;2.20;;;;;;;14.83;22.45;101579.75;1778428;80;21040;-71
2022/02/28 11:07:09;;;;;;;2.90;2.17;;;;;;;14.68;23.61;101572.30;1779078;80;21093;-71
2022/02/28 11:09:42;;;;;;;3.70;2.30;;;;;;;15.27;24.65;101572.58;1778801;80;21041;-71
2022/02/28 11:12:29;;;;;;;5.80;2.83;;;;;;;15.95;23.37;101575.12;1779034;80;21050;-72
2022/02/28 11:15:04;;;;;;;5.17;2.80;;;;;;;16.12;22.93;101580.66;1778470;80;21985;-72
2022/02/28 11:17:33;;;;;;;8.83;2.50;;;;;;;16.28;21.85;101581.42;1778842;80;21084;-71
2022/02/28 11:20:06;;;;;;;5.62;2.27;;;;;;;16.19;21.89;101581.77;1778638;80;21073;-71
2022/02/28 11:22:31;;;;;;;4.97;2.40;;;;;;;15.53;22.07;101577.88;1775989;80;21156;-70
2022/02/28 11:25:00;;;;;;;5.05;2.55;;;;;;;14.60;23.02;101580.46;1773076;80;21113;-70
2022/02/28 11:27:29;;;;;;;3.95;2.25;;;;;;;13.92;23.74;101584.20;1773372;80;21121;-71
2022/02/28 11:30:07;;;;;;;4.22;2.37;;;;;;;13.52;24.64;101584.39;1772973;80;21533;-70
2022/02/28 11:32:34;;;;;;;3.98;2.27;;;;;;;13.52;24.88;101582.61;1764594;80;21006;-71
2022/02/28 11:35:41;;;;;;;6.72;2.77;;;;;;;13.42;24.65;101578.48;1773191;80;21068;-71
2022/02/28 11:38:28;;;;;;;4.03;2.47;;;;;;;12.91;25.03;101589.41;1750494;80;21088;-71